sensor_id;sensor_type;location;lat;lon;timestamp;P1;durP1;ratioP1;P2;durP2;ratioP2
11797;SDS011;5956;51.428;6.682;2023-04-15T00:02:20;9.73;;;7.10;;
11797;SDS011;5956;51.428;6.682;2023-04-15T00:04:46;11.13;;;7.20;;
11797;SDS011;5956;51.428;6.682;2023-04-15T00:07:15;10.53;;;7.03;;
11797;SDS011;5956;51.428;6.682;2023-04-15T00:09:42;10.23;;;7.47;;
11797;SDS011;5956;51.428;6.682;2023-04-15T00:12:09;8.03;;;6.30;;
11797;SDS011;5956;51.428;6.682;2023-04-15T00:14:36;9.57;;;6.90;;
11797;SDS011;5956;51.428;6.682;2023-04-15T00:17:03;9.00;;;7.07;;
11797;SDS011;5956;51.428;6.682;2023-04-15T00:19:29;7.23;;;6.63;;
11797;SDS011;5956;51.428;6.682;2023-04-15T00:21:56;9.03;;;6.90;;
11797;SDS011;5956;51.428;6.682;2023-04-15T00:24:24;8.67;;;7.07;;
11797;SDS011;5956;51.428;6.682;2023-04-15T00:26:51;7.30;;;6.40;;
11797;SDS011;5956;51.428;6.682;2023-04-15T00:29:17;11.40;;;6.87;;
11797;SDS011;5956;51.428;6.682;2023-04-15T00:31:44;9.87;;;6.80;;
11797;SDS011;5956;51.428;6.682;2023-04-15T00:34:10;9.93;;;7.27;;
11797;SDS011;5956;51.428;6.682;2023-04-15T00:36:37;9.40;;;8.07;;
11797;SDS011;5956;51.428;6.682;2023-04-15T00:39:04;9.77;;;6.87;;
11797;SDS011;5956;51.428;6.682;2023-04-15T00:41:32;8.00;;;6.60;;
11797;SDS011;5956;51.428;6.682;2023-04-15T00:43:59;10.70;;;7.57;;
11797;SDS011;5956;51.428;6.682;2023-04-15T00:46:27;10.70;;;7.53;;
11797;SDS011;5956;51.428;6.682;2023-04-15T00:48:54;10.60;;;7.63;;
11797;SDS011;5956;51.428;6.682;2023-04-15T00:51:21;9.67;;;7.60;;
11797;SDS011;5956;51.428;6.682;2023-04-15T00:53:48;10.10;;;8.20;;
11797;SDS011;5956;51.428;6.682;2023-04-15T00:56:15;7.97;;;7.17;;
11797;SDS011;5956;51.428;6.682;2023-04-15T00:58:43;8.47;;;7.03;;
11797;SDS011;5956;51.428;6.682;2023-04-15T01:01:10;9.33;;;7.27;;
11797;SDS011;5956;51.428;6.682;2023-04-15T01:03:36;8.60;;;7.67;;
11797;SDS011;5956;51.428;6.682;2023-04-15T01:06:03;8.20;;;6.87;;
11797;SDS011;5956;51.428;6.682;2023-04-15T01:08:29;9.97;;;7.10;;
11797;SDS011;5956;51.428;6.682;2023-04-15T01:10:56;10.27;;;7.60;;
11797;SDS011;5956;51.428;6.682;2023-04-15T01:13:24;8.83;;;6.93;;
11797;SDS011;5956;51.428;6.682;2023-04-15T01:15:52;9.23;;;7.83;;
11797;SDS011;5956;51.428;6.682;2023-04-15T01:18:18;11.63;;;7.53;;
11797;SDS011;5956;51.428;6.682;2023-04-15T01:20:46;8.77;;;7.83;;
11797;SDS011;5956;51.428;6.682;2023-04-15T01:23:12;8.87;;;7.97;;
11797;SDS011;5956;51.428;6.682;2023-04-15T01:25:40;9.97;;;7.57;;
11797;SDS011;5956;51.428;6.682;2023-04-15T01:28:07;10.17;;;7.73;;
11797;SDS011;5956;51.428;6.682;2023-04-15T01:30:34;10.33;;;7.53;;
11797;SDS011;5956;51.428;6.682;2023-04-15T01:33:01;9.10;;;8.20;;
11797;SDS011;5956;51.428;6.682;2023-04-15T01:35:28;11.67;;;8.47;;
11797;SDS011;5956;51.428;6.682;2023-04-15T01:37:55;9.27;;;8.07;;
11797;SDS011;5956;51.428;6.682;2023-04-15T01:40:24;11.87;;;8.37;;
11797;SDS011;5956;51.428;6.682;2023-04-15T01:42:52;11.53;;;8.87;;
11797;SDS011;5956;51.428;6.682;2023-04-15T01:45:18;9.37;;;8.47;;
11797;SDS011;5956;51.428;6.682;2023-04-15T01:47:45;10.10;;;9.10;;
11797;SDS011;5956;51.428;6.682;2023-04-15T01:50:12;14.63;;;9.27;;
11797;SDS011;5956;51.428;6.682;2023-04-15T01:52:38;10.40;;;8.90;;
11797;SDS011;5956;51.428;6.682;2023-04-15T01:55:05;12.43;;;8.93;;
11797;SDS011;5956;51.428;6.682;2023-04-15T01:57:32;9.80;;;8.87;;
11797;SDS011;5956;51.428;6.682;2023-04-15T01:59:59;10.20;;;8.60;;
11797;SDS011;5956;51.428;6.682;2023-04-15T02:02:26;9.00;;;8.10;;
11797;SDS011;5956;51.428;6.682;2023-04-15T02:04:53;9.80;;;8.80;;
11797;SDS011;5956;51.428;6.682;2023-04-15T02:07:19;10.93;;;9.70;;
11797;SDS011;5956;51.428;6.682;2023-04-15T02:09:46;8.73;;;7.87;;
11797;SDS011;5956;51.428;6.682;2023-04-15T02:12:12;9.47;;;8.53;;
11797;SDS011;5956;51.428;6.682;2023-04-15T02:14:39;11.10;;;9.13;;
11797;SDS011;5956;51.428;6.682;2023-04-15T02:17:07;10.07;;;8.77;;
11797;SDS011;5956;51.428;6.682;2023-04-15T02:19:33;11.37;;;9.83;;
11797;SDS011;5956;51.428;6.682;2023-04-15T02:22:00;10.70;;;9.20;;
11797;SDS011;5956;51.428;6.682;2023-04-15T02:24:26;9.93;;;8.93;;
11797;SDS011;5956;51.428;6.682;2023-04-15T02:26:53;11.17;;;9.50;;
11797;SDS011;5956;51.428;6.682;2023-04-15T02:29:20;11.80;;;9.67;;
11797;SDS011;5956;51.428;6.682;2023-04-15T02:31:47;10.67;;;9.67;;
11797;SDS011;5956;51.428;6.682;2023-04-15T02:34:14;10.60;;;9.53;;
11797;SDS011;5956;51.428;6.682;2023-04-15T02:36:41;10.23;;;9.17;;
11797;SDS011;5956;51.428;6.682;2023-04-15T02:39:07;9.80;;;8.80;;
11797;SDS011;5956;51.428;6.682;2023-04-15T02:41:34;10.57;;;9.17;;
11797;SDS011;5956;51.428;6.682;2023-04-15T02:44:00;10.10;;;9.07;;
11797;SDS011;5956;51.428;6.682;2023-04-15T02:46:27;10.93;;;9.30;;
11797;SDS011;5956;51.428;6.682;2023-04-15T02:48:53;10.77;;;9.67;;
11797;SDS011;5956;51.428;6.682;2023-04-15T02:51:21;10.67;;;9.57;;
11797;SDS011;5956;51.428;6.682;2023-04-15T02:53:48;10.80;;;9.70;;
11797;SDS011;5956;51.428;6.682;2023-04-15T02:56:15;10.53;;;9.63;;
11797;SDS011;5956;51.428;6.682;2023-04-15T02:58:42;12.20;;;9.47;;
11797;SDS011;5956;51.428;6.682;2023-04-15T03:01:08;10.93;;;9.83;;
11797;SDS011;5956;51.428;6.682;2023-04-15T03:03:35;11.57;;;10.37;;
11797;SDS011;5956;51.428;6.682;2023-04-15T03:06:02;12.23;;;9.73;;
11797;SDS011;5956;51.428;6.682;2023-04-15T03:08:30;12.00;;;9.73;;
11797;SDS011;5956;51.428;6.682;2023-04-15T03:10:57;12.07;;;10.33;;
11797;SDS011;5956;51.428;6.682;2023-04-15T03:13:24;10.63;;;9.60;;
11797;SDS011;5956;51.428;6.682;2023-04-15T03:15:51;10.93;;;9.73;;
11797;SDS011;5956;51.428;6.682;2023-04-15T03:18:17;11.20;;;10.13;;
11797;SDS011;5956;51.428;6.682;2023-04-15T03:20:44;11.83;;;10.37;;
11797;SDS011;5956;51.428;6.682;2023-04-15T03:23:10;10.43;;;9.40;;
11797;SDS011;5956;51.428;6.682;2023-04-15T03:25:38;12.03;;;9.83;;
11797;SDS011;5956;51.428;6.682;2023-04-15T03:28:05;11.27;;;9.93;;
11797;SDS011;5956;51.428;6.682;2023-04-15T03:30:31;11.50;;;9.60;;
11797;SDS011;5956;51.428;6.682;2023-04-15T03:32:58;10.70;;;9.67;;
11797;SDS011;5956;51.428;6.682;2023-04-15T03:35:24;12.00;;;9.67;;
11797;SDS011;5956;51.428;6.682;2023-04-15T03:37:51;11.00;;;9.77;;
11797;SDS011;5956;51.428;6.682;2023-04-15T03:40:17;11.77;;;9.63;;
11797;SDS011;5956;51.428;6.682;2023-04-15T03:42:45;10.90;;;9.90;;
11797;SDS011;5956;51.428;6.682;2023-04-15T03:45:11;11.30;;;9.63;;
11797;SDS011;5956;51.428;6.682;2023-04-15T03:47:38;10.63;;;9.63;;
11797;SDS011;5956;51.428;6.682;2023-04-15T03:50:05;10.40;;;9.30;;
11797;SDS011;5956;51.428;6.682;2023-04-15T03:52:31;9.47;;;8.50;;
11797;SDS011;5956;51.428;6.682;2023-04-15T03:54:58;9.53;;;8.63;;
11797;SDS011;5956;51.428;6.682;2023-04-15T03:57:24;10.70;;;8.57;;
11797;SDS011;5956;51.428;6.682;2023-04-15T03:59:52;10.17;;;9.07;;
11797;SDS011;5956;51.428;6.682;2023-04-15T04:02:19;9.10;;;8.20;;
11797;SDS011;5956;51.428;6.682;2023-04-15T04:04:46;10.33;;;8.93;;
11797;SDS011;5956;51.428;6.682;2023-04-15T04:07:14;10.57;;;9.30;;
11797;SDS011;5956;51.428;6.682;2023-04-15T04:09:40;10.33;;;9.30;;
11797;SDS011;5956;51.428;6.682;2023-04-15T04:12:07;10.10;;;8.80;;
11797;SDS011;5956;51.428;6.682;2023-04-15T04:14:34;10.73;;;9.23;;
11797;SDS011;5956;51.428;6.682;2023-04-15T04:17:01;9.73;;;8.83;;
11797;SDS011;5956;51.428;6.682;2023-04-15T04:19:28;10.90;;;9.63;;
11797;SDS011;5956;51.428;6.682;2023-04-15T04:21:55;9.87;;;8.87;;
11797;SDS011;5956;51.428;6.682;2023-04-15T04:24:21;12.83;;;9.97;;
11797;SDS011;5956;51.428;6.682;2023-04-15T04:26:48;10.93;;;9.30;;
11797;SDS011;5956;51.428;6.682;2023-04-15T04:29:14;10.40;;;9.40;;
11797;SDS011;5956;51.428;6.682;2023-04-15T04:31:41;9.93;;;8.90;;
11797;SDS011;5956;51.428;6.682;2023-04-15T04:34:08;12.57;;;9.63;;
11797;SDS011;5956;51.428;6.682;2023-04-15T04:36:35;10.37;;;9.10;;
11797;SDS011;5956;51.428;6.682;2023-04-15T04:39:02;13.57;;;9.30;;
11797;SDS011;5956;51.428;6.682;2023-04-15T04:41:28;11.67;;;9.30;;
11797;SDS011;5956;51.428;6.682;2023-04-15T04:43:55;10.60;;;9.50;;
11797;SDS011;5956;51.428;6.682;2023-04-15T04:46:21;11.40;;;9.40;;
11797;SDS011;5956;51.428;6.682;2023-04-15T04:48:48;11.20;;;10.10;;
11797;SDS011;5956;51.428;6.682;2023-04-15T04:51:15;11.87;;;9.03;;
11797;SDS011;5956;51.428;6.682;2023-04-15T04:53:42;10.73;;;9.67;;
11797;SDS011;5956;51.428;6.682;2023-04-15T04:56:09;11.03;;;9.93;;
11797;SDS011;5956;51.428;6.682;2023-04-15T04:58:35;10.87;;;9.77;;
11797;SDS011;5956;51.428;6.682;2023-04-15T05:01:02;12.83;;;9.70;;
11797;SDS011;5956;51.428;6.682;2023-04-15T05:03:28;10.73;;;9.63;;
11797;SDS011;5956;51.428;6.682;2023-04-15T05:05:55;10.77;;;9.77;;
11797;SDS011;5956;51.428;6.682;2023-04-15T05:08:23;11.40;;;9.80;;
11797;SDS011;5956;51.428;6.682;2023-04-15T05:10:49;12.40;;;10.67;;
11797;SDS011;5956;51.428;6.682;2023-04-15T05:13:16;12.33;;;11.00;;
11797;SDS011;5956;51.428;6.682;2023-04-15T05:15:42;11.77;;;10.57;;
11797;SDS011;5956;51.428;6.682;2023-04-15T05:18:09;12.73;;;10.37;;
11797;SDS011;5956;51.428;6.682;2023-04-15T05:20:35;11.93;;;10.63;;
11797;SDS011;5956;51.428;6.682;2023-04-15T05:23:02;11.43;;;10.33;;
11797;SDS011;5956;51.428;6.682;2023-04-15T05:25:30;11.17;;;9.73;;
11797;SDS011;5956;51.428;6.682;2023-04-15T05:27:56;12.23;;;11.00;;
11797;SDS011;5956;51.428;6.682;2023-04-15T05:30:23;11.50;;;10.33;;
11797;SDS011;5956;51.428;6.682;2023-04-15T05:32:49;11.60;;;10.50;;
11797;SDS011;5956;51.428;6.682;2023-04-15T05:35:16;12.53;;;11.27;;
11797;SDS011;5956;51.428;6.682;2023-04-15T05:37:43;12.97;;;11.70;;
11797;SDS011;5956;51.428;6.682;2023-04-15T05:40:10;13.97;;;12.17;;
11797;SDS011;5956;51.428;6.682;2023-04-15T05:42:37;12.97;;;11.67;;
11797;SDS011;5956;51.428;6.682;2023-04-15T05:45:05;11.67;;;10.57;;
11797;SDS011;5956;51.428;6.682;2023-04-15T05:47:33;12.07;;;10.87;;
11797;SDS011;5956;51.428;6.682;2023-04-15T05:50:00;13.03;;;11.10;;
11797;SDS011;5956;51.428;6.682;2023-04-15T05:52:26;12.70;;;11.40;;
11797;SDS011;5956;51.428;6.682;2023-04-15T05:54:53;11.97;;;10.77;;
11797;SDS011;5956;51.428;6.682;2023-04-15T05:57:19;12.40;;;11.20;;
11797;SDS011;5956;51.428;6.682;2023-04-15T05:59:47;11.93;;;10.83;;
11797;SDS011;5956;51.428;6.682;2023-04-15T06:02:15;14.47;;;12.00;;
11797;SDS011;5956;51.428;6.682;2023-04-15T06:04:42;12.40;;;11.13;;
11797;SDS011;5956;51.428;6.682;2023-04-15T06:07:08;13.60;;;12.27;;
11797;SDS011;5956;51.428;6.682;2023-04-15T06:09:35;14.13;;;12.73;;
11797;SDS011;5956;51.428;6.682;2023-04-15T06:12:01;13.87;;;12.40;;
11797;SDS011;5956;51.428;6.682;2023-04-15T06:14:28;12.80;;;11.60;;
11797;SDS011;5956;51.428;6.682;2023-04-15T06:16:56;14.50;;;12.77;;
11797;SDS011;5956;51.428;6.682;2023-04-15T06:19:22;14.63;;;13.27;;
11797;SDS011;5956;51.428;6.682;2023-04-15T06:21:49;13.30;;;12.00;;
11797;SDS011;5956;51.428;6.682;2023-04-15T06:24:16;14.47;;;12.83;;
11797;SDS011;5956;51.428;6.682;2023-04-15T06:26:42;13.77;;;12.47;;
11797;SDS011;5956;51.428;6.682;2023-04-15T06:29:09;13.67;;;12.03;;
11797;SDS011;5956;51.428;6.682;2023-04-15T06:31:35;15.93;;;12.93;;
11797;SDS011;5956;51.428;6.682;2023-04-15T06:34:03;14.37;;;12.97;;
11797;SDS011;5956;51.428;6.682;2023-04-15T06:36:29;15.97;;;12.50;;
11797;SDS011;5956;51.428;6.682;2023-04-15T06:38:56;13.50;;;12.13;;
11797;SDS011;5956;51.428;6.682;2023-04-15T06:41:23;18.27;;;14.07;;
11797;SDS011;5956;51.428;6.682;2023-04-15T06:43:49;16.63;;;15.07;;
11797;SDS011;5956;51.428;6.682;2023-04-15T06:46:16;15.10;;;13.33;;
11797;SDS011;5956;51.428;6.682;2023-04-15T06:48:42;14.33;;;12.90;;
11797;SDS011;5956;51.428;6.682;2023-04-15T06:51:10;13.93;;;12.53;;
11797;SDS011;5956;51.428;6.682;2023-04-15T06:53:37;15.70;;;14.07;;
11797;SDS011;5956;51.428;6.682;2023-04-15T06:56:06;14.93;;;13.43;;
11797;SDS011;5956;51.428;6.682;2023-04-15T06:58:32;14.30;;;12.90;;
11797;SDS011;5956;51.428;6.682;2023-04-15T07:00:59;15.00;;;13.37;;
11797;SDS011;5956;51.428;6.682;2023-04-15T07:03:26;14.27;;;12.87;;
11797;SDS011;5956;51.428;6.682;2023-04-15T07:05:52;13.23;;;11.93;;
11797;SDS011;5956;51.428;6.682;2023-04-15T07:08:20;8.00;;;7.20;;
11797;SDS011;5956;51.428;6.682;2023-04-15T07:10:46;9.03;;;8.13;;
11797;SDS011;5956;51.428;6.682;2023-04-15T07:13:13;10.90;;;9.90;;
11797;SDS011;5956;51.428;6.682;2023-04-15T07:15:39;10.67;;;9.67;;
11797;SDS011;5956;51.428;6.682;2023-04-15T07:18:06;13.50;;;11.57;;
11797;SDS011;5956;51.428;6.682;2023-04-15T07:20:33;12.03;;;11.03;;
11797;SDS011;5956;51.428;6.682;2023-04-15T07:23:00;11.43;;;10.43;;
11797;SDS011;5956;51.428;6.682;2023-04-15T07:25:28;9.63;;;8.67;;
11797;SDS011;5956;51.428;6.682;2023-04-15T07:27:54;9.97;;;9.17;;
11797;SDS011;5956;51.428;6.682;2023-04-15T07:30:21;8.00;;;7.30;;
11797;SDS011;5956;51.428;6.682;2023-04-15T07:32:47;8.87;;;8.00;;
11797;SDS011;5956;51.428;6.682;2023-04-15T07:35:14;8.77;;;7.60;;
11797;SDS011;5956;51.428;6.682;2023-04-15T07:37:40;8.53;;;7.00;;
11797;SDS011;5956;51.428;6.682;2023-04-15T07:40:08;7.83;;;6.70;;
11797;SDS011;5956;51.428;6.682;2023-04-15T07:42:36;6.40;;;5.80;;
11797;SDS011;5956;51.428;6.682;2023-04-15T07:45:02;5.20;;;4.80;;
11797;SDS011;5956;51.428;6.682;2023-04-15T07:47:29;5.23;;;4.83;;
11797;SDS011;5956;51.428;6.682;2023-04-15T07:49:56;4.83;;;4.43;;
11797;SDS011;5956;51.428;6.682;2023-04-15T07:52:22;4.83;;;4.43;;
11797;SDS011;5956;51.428;6.682;2023-04-15T07:54:49;4.43;;;4.07;;
11797;SDS011;5956;51.428;6.682;2023-04-15T07:57:15;4.63;;;4.23;;
11797;SDS011;5956;51.428;6.682;2023-04-15T07:59:44;5.20;;;4.43;;
11797;SDS011;5956;51.428;6.682;2023-04-15T08:02:10;4.63;;;4.00;;
11797;SDS011;5956;51.428;6.682;2023-04-15T08:04:36;4.43;;;4.03;;
11797;SDS011;5956;51.428;6.682;2023-04-15T08:07:03;4.90;;;4.17;;
11797;SDS011;5956;51.428;6.682;2023-04-15T08:09:30;4.83;;;4.40;;
11797;SDS011;5956;51.428;6.682;2023-04-15T08:11:56;4.73;;;4.33;;
11797;SDS011;5956;51.428;6.682;2023-04-15T08:14:23;5.03;;;4.60;;
11797;SDS011;5956;51.428;6.682;2023-04-15T08:16:51;5.87;;;4.57;;
11797;SDS011;5956;51.428;6.682;2023-04-15T08:19:17;4.50;;;4.10;;
11797;SDS011;5956;51.428;6.682;2023-04-15T08:21:44;4.80;;;4.40;;
11797;SDS011;5956;51.428;6.682;2023-04-15T08:24:11;5.07;;;4.57;;
11797;SDS011;5956;51.428;6.682;2023-04-15T08:26:37;4.57;;;4.17;;
11797;SDS011;5956;51.428;6.682;2023-04-15T08:29:04;5.47;;;3.80;;
11797;SDS011;5956;51.428;6.682;2023-04-15T08:31:30;5.23;;;4.07;;
11797;SDS011;5956;51.428;6.682;2023-04-15T08:33:59;5.67;;;4.23;;
11797;SDS011;5956;51.428;6.682;2023-04-15T08:36:25;5.57;;;3.47;;
11797;SDS011;5956;51.428;6.682;2023-04-15T08:38:52;4.50;;;4.10;;
11797;SDS011;5956;51.428;6.682;2023-04-15T08:41:20;7.73;;;3.97;;
11797;SDS011;5956;51.428;6.682;2023-04-15T08:43:48;4.07;;;2.40;;
11797;SDS011;5956;51.428;6.682;2023-04-15T08:46:17;2.63;;;2.23;;
11797;SDS011;5956;51.428;6.682;2023-04-15T08:48:43;3.87;;;3.57;;
11797;SDS011;5956;51.428;6.682;2023-04-15T08:51:14;4.37;;;3.50;;
11797;SDS011;5956;51.428;6.682;2023-04-15T08:53:41;3.47;;;3.27;;
11797;SDS011;5956;51.428;6.682;2023-04-15T08:56:08;5.13;;;3.07;;
11797;SDS011;5956;51.428;6.682;2023-04-15T08:58:35;3.87;;;3.57;;
11797;SDS011;5956;51.428;6.682;2023-04-15T09:01:02;5.33;;;3.20;;
11797;SDS011;5956;51.428;6.682;2023-04-15T09:03:28;3.60;;;3.30;;
11797;SDS011;5956;51.428;6.682;2023-04-15T09:05:55;4.13;;;3.63;;
11797;SDS011;5956;51.428;6.682;2023-04-15T09:08:23;4.47;;;4.17;;
11797;SDS011;5956;51.428;6.682;2023-04-15T09:10:50;3.77;;;3.47;;
11797;SDS011;5956;51.428;6.682;2023-04-15T09:13:17;3.67;;;3.47;;
11797;SDS011;5956;51.428;6.682;2023-04-15T09:15:43;5.00;;;3.83;;
11797;SDS011;5956;51.428;6.682;2023-04-15T09:18:10;3.97;;;3.67;;
11797;SDS011;5956;51.428;6.682;2023-04-15T09:20:37;3.77;;;3.57;;
11797;SDS011;5956;51.428;6.682;2023-04-15T09:23:10;3.93;;;3.67;;
11797;SDS011;5956;51.428;6.682;2023-04-15T09:25:38;3.20;;;3.00;;
11797;SDS011;5956;51.428;6.682;2023-04-15T09:28:06;5.30;;;2.40;;
11797;SDS011;5956;51.428;6.682;2023-04-15T09:30:33;4.10;;;3.80;;
11797;SDS011;5956;51.428;6.682;2023-04-15T09:33:00;4.40;;;4.10;;
11797;SDS011;5956;51.428;6.682;2023-04-15T09:35:28;4.87;;;4.47;;
11797;SDS011;5956;51.428;6.682;2023-04-15T09:38:01;3.63;;;3.43;;
11797;SDS011;5956;51.428;6.682;2023-04-15T09:40:31;5.00;;;4.70;;
11797;SDS011;5956;51.428;6.682;2023-04-15T09:42:59;5.53;;;4.97;;
11797;SDS011;5956;51.428;6.682;2023-04-15T09:45:27;5.07;;;4.67;;
11797;SDS011;5956;51.428;6.682;2023-04-15T09:47:53;4.63;;;4.30;;
11797;SDS011;5956;51.428;6.682;2023-04-15T09:50:20;5.20;;;4.80;;
11797;SDS011;5956;51.428;6.682;2023-04-15T09:52:47;5.20;;;4.63;;
11797;SDS011;5956;51.428;6.682;2023-04-15T09:55:13;4.60;;;4.30;;
11797;SDS011;5956;51.428;6.682;2023-04-15T09:57:40;3.70;;;3.40;;
11797;SDS011;5956;51.428;6.682;2023-04-15T10:00:10;3.70;;;3.40;;
11797;SDS011;5956;51.428;6.682;2023-04-15T10:02:37;4.67;;;4.27;;
11797;SDS011;5956;51.428;6.682;2023-04-15T10:05:05;4.70;;;4.33;;
11797;SDS011;5956;51.428;6.682;2023-04-15T10:07:32;5.20;;;4.77;;
11797;SDS011;5956;51.428;6.682;2023-04-15T10:09:59;4.40;;;4.10;;
11797;SDS011;5956;51.428;6.682;2023-04-15T10:12:26;5.40;;;5.00;;
11797;SDS011;5956;51.428;6.682;2023-04-15T10:14:55;4.97;;;4.47;;
11797;SDS011;5956;51.428;6.682;2023-04-15T10:17:25;5.13;;;4.63;;
11797;SDS011;5956;51.428;6.682;2023-04-15T10:19:53;4.40;;;4.10;;
11797;SDS011;5956;51.428;6.682;2023-04-15T10:22:20;5.07;;;4.57;;
11797;SDS011;5956;51.428;6.682;2023-04-15T10:24:47;4.47;;;4.17;;
11797;SDS011;5956;51.428;6.682;2023-04-15T10:27:16;4.63;;;4.23;;
11797;SDS011;5956;51.428;6.682;2023-04-15T10:29:43;4.90;;;4.50;;
11797;SDS011;5956;51.428;6.682;2023-04-15T10:32:10;5.57;;;5.17;;
11797;SDS011;5956;51.428;6.682;2023-04-15T10:34:38;5.70;;;5.30;;
11797;SDS011;5956;51.428;6.682;2023-04-15T10:37:08;3.93;;;3.60;;
11797;SDS011;5956;51.428;6.682;2023-04-15T10:39:38;5.50;;;5.00;;
11797;SDS011;5956;51.428;6.682;2023-04-15T10:42:06;5.30;;;4.90;;
11797;SDS011;5956;51.428;6.682;2023-04-15T10:44:32;5.17;;;4.77;;
11797;SDS011;5956;51.428;6.682;2023-04-15T10:47:03;4.50;;;4.10;;
11797;SDS011;5956;51.428;6.682;2023-04-15T10:49:30;4.50;;;4.20;;
11797;SDS011;5956;51.428;6.682;2023-04-15T10:51:58;4.60;;;4.30;;
11797;SDS011;5956;51.428;6.682;2023-04-15T10:54:31;4.40;;;4.00;;
11797;SDS011;5956;51.428;6.682;2023-04-15T10:57:12;3.83;;;3.53;;
11797;SDS011;5956;51.428;6.682;2023-04-15T11:02:23;4.53;;;4.23;;
11797;SDS011;5956;51.428;6.682;2023-04-15T11:05:03;3.83;;;3.53;;
11797;SDS011;5956;51.428;6.682;2023-04-15T11:07:37;4.30;;;4.00;;
11797;SDS011;5956;51.428;6.682;2023-04-15T11:12:46;4.93;;;4.63;;
11797;SDS011;5956;51.428;6.682;2023-04-15T11:15:26;4.63;;;4.33;;
11797;SDS011;5956;51.428;6.682;2023-04-15T11:17:53;5.50;;;5.10;;
11797;SDS011;5956;51.428;6.682;2023-04-15T11:20:20;5.50;;;5.10;;
11797;SDS011;5956;51.428;6.682;2023-04-15T11:22:49;4.87;;;4.07;;
11797;SDS011;5956;51.428;6.682;2023-04-15T11:25:22;4.73;;;4.43;;
11797;SDS011;5956;51.428;6.682;2023-04-15T11:27:49;4.87;;;4.47;;
11797;SDS011;5956;51.428;6.682;2023-04-15T11:30:19;5.40;;;4.27;;
11797;SDS011;5956;51.428;6.682;2023-04-15T11:32:46;4.63;;;4.33;;
11797;SDS011;5956;51.428;6.682;2023-04-15T11:35:13;4.53;;;4.13;;
11797;SDS011;5956;51.428;6.682;2023-04-15T11:37:40;4.47;;;4.17;;
11797;SDS011;5956;51.428;6.682;2023-04-15T11:40:09;3.83;;;3.53;;
11797;SDS011;5956;51.428;6.682;2023-04-15T11:42:35;4.87;;;4.57;;
11797;SDS011;5956;51.428;6.682;2023-04-15T11:45:05;4.03;;;3.73;;
11797;SDS011;5956;51.428;6.682;2023-04-15T11:47:32;4.77;;;4.40;;
11797;SDS011;5956;51.428;6.682;2023-04-15T11:50:17;4.63;;;4.23;;
11797;SDS011;5956;51.428;6.682;2023-04-15T11:52:52;4.83;;;3.80;;
11797;SDS011;5956;51.428;6.682;2023-04-15T11:55:20;4.90;;;4.40;;
11797;SDS011;5956;51.428;6.682;2023-04-15T11:57:48;4.33;;;3.93;;
11797;SDS011;5956;51.428;6.682;2023-04-15T12:00:15;4.20;;;3.90;;
11797;SDS011;5956;51.428;6.682;2023-04-15T12:02:42;3.90;;;3.60;;
11797;SDS011;5956;51.428;6.682;2023-04-15T12:05:08;4.03;;;3.27;;
11797;SDS011;5956;51.428;6.682;2023-04-15T12:10:17;6.87;;;4.43;;
11797;SDS011;5956;51.428;6.682;2023-04-15T12:12:50;3.77;;;3.50;;
11797;SDS011;5956;51.428;6.682;2023-04-15T12:15:20;3.90;;;3.60;;
11797;SDS011;5956;51.428;6.682;2023-04-15T12:17:46;4.07;;;3.77;;
11797;SDS011;5956;51.428;6.682;2023-04-15T12:20:13;4.83;;;3.53;;
11797;SDS011;5956;51.428;6.682;2023-04-15T12:22:46;3.63;;;3.33;;
11797;SDS011;5956;51.428;6.682;2023-04-15T12:25:12;3.57;;;3.37;;
11797;SDS011;5956;51.428;6.682;2023-04-15T12:27:40;3.63;;;3.37;;
11797;SDS011;5956;51.428;6.682;2023-04-15T12:30:08;3.80;;;3.50;;
11797;SDS011;5956;51.428;6.682;2023-04-15T12:32:35;3.83;;;3.57;;
11797;SDS011;5956;51.428;6.682;2023-04-15T12:35:02;3.67;;;3.43;;
11797;SDS011;5956;51.428;6.682;2023-04-15T12:37:29;3.87;;;3.57;;
11797;SDS011;5956;51.428;6.682;2023-04-15T12:39:55;3.63;;;3.33;;
11797;SDS011;5956;51.428;6.682;2023-04-15T12:42:22;3.23;;;3.03;;
11797;SDS011;5956;51.428;6.682;2023-04-15T12:44:49;3.77;;;3.47;;
11797;SDS011;5956;51.428;6.682;2023-04-15T12:47:17;3.37;;;3.17;;
11797;SDS011;5956;51.428;6.682;2023-04-15T12:49:43;4.83;;;3.53;;
11797;SDS011;5956;51.428;6.682;2023-04-15T12:52:10;3.63;;;3.33;;
11797;SDS011;5956;51.428;6.682;2023-04-15T12:54:37;3.73;;;2.40;;
11797;SDS011;5956;51.428;6.682;2023-04-15T12:57:04;3.73;;;2.60;;
11797;SDS011;5956;51.428;6.682;2023-04-15T12:59:31;3.93;;;3.50;;
11797;SDS011;5956;51.428;6.682;2023-04-15T13:01:57;4.33;;;3.93;;
11797;SDS011;5956;51.428;6.682;2023-04-15T13:04:26;4.70;;;3.77;;
11797;SDS011;5956;51.428;6.682;2023-04-15T13:06:54;3.70;;;2.30;;
11797;SDS011;5956;51.428;6.682;2023-04-15T13:09:21;3.50;;;3.03;;
11797;SDS011;5956;51.428;6.682;2023-04-15T13:11:48;3.47;;;3.17;;
11797;SDS011;5956;51.428;6.682;2023-04-15T13:14:14;3.80;;;3.30;;
11797;SDS011;5956;51.428;6.682;2023-04-15T13:16:41;4.40;;;3.43;;
11797;SDS011;5956;51.428;6.682;2023-04-15T13:19:07;4.20;;;3.70;;
11797;SDS011;5956;51.428;6.682;2023-04-15T13:21:35;4.03;;;3.53;;
11797;SDS011;5956;51.428;6.682;2023-04-15T13:24:02;3.13;;;2.93;;
11797;SDS011;5956;51.428;6.682;2023-04-15T13:26:30;3.67;;;2.90;;
11797;SDS011;5956;51.428;6.682;2023-04-15T13:28:57;2.80;;;2.60;;
11797;SDS011;5956;51.428;6.682;2023-04-15T13:31:23;3.10;;;2.77;;
11797;SDS011;5956;51.428;6.682;2023-04-15T13:33:50;3.47;;;3.03;;
11797;SDS011;5956;51.428;6.682;2023-04-15T13:36:16;3.07;;;2.87;;
11797;SDS011;5956;51.428;6.682;2023-04-15T13:38:44;2.90;;;2.57;;
11797;SDS011;5956;51.428;6.682;2023-04-15T13:41:11;3.17;;;2.87;;
11797;SDS011;5956;51.428;6.682;2023-04-15T13:43:37;4.60;;;3.10;;
11797;SDS011;5956;51.428;6.682;2023-04-15T13:46:04;3.00;;;2.80;;
11797;SDS011;5956;51.428;6.682;2023-04-15T13:48:30;2.77;;;2.67;;
11797;SDS011;5956;51.428;6.682;2023-04-15T13:50:57;3.50;;;3.30;;
11797;SDS011;5956;51.428;6.682;2023-04-15T13:53:23;3.67;;;3.37;;
11797;SDS011;5956;51.428;6.682;2023-04-15T13:55:51;3.93;;;3.13;;
11797;SDS011;5956;51.428;6.682;2023-04-15T13:58:18;3.30;;;3.00;;
11797;SDS011;5956;51.428;6.682;2023-04-15T14:00:44;3.23;;;2.77;;
11797;SDS011;5956;51.428;6.682;2023-04-15T14:03:11;4.07;;;3.07;;
11797;SDS011;5956;51.428;6.682;2023-04-15T14:05:37;3.50;;;3.10;;
11797;SDS011;5956;51.428;6.682;2023-04-15T14:08:04;2.63;;;2.43;;
11797;SDS011;5956;51.428;6.682;2023-04-15T14:10:30;3.30;;;2.60;;
11797;SDS011;5956;51.428;6.682;2023-04-15T14:12:58;2.87;;;2.60;;
11797;SDS011;5956;51.428;6.682;2023-04-15T14:15:25;3.20;;;2.90;;
11797;SDS011;5956;51.428;6.682;2023-04-15T14:17:51;3.37;;;2.43;;
11797;SDS011;5956;51.428;6.682;2023-04-15T14:20:18;2.73;;;2.57;;
11797;SDS011;5956;51.428;6.682;2023-04-15T14:22:45;2.67;;;2.47;;
11797;SDS011;5956;51.428;6.682;2023-04-15T14:25:11;2.83;;;2.63;;
11797;SDS011;5956;51.428;6.682;2023-04-15T14:27:37;2.70;;;2.50;;
11797;SDS011;5956;51.428;6.682;2023-04-15T14:30:06;2.90;;;2.67;;
11797;SDS011;5956;51.428;6.682;2023-04-15T14:32:33;2.33;;;2.10;;
11797;SDS011;5956;51.428;6.682;2023-04-15T14:34:59;3.43;;;2.50;;
11797;SDS011;5956;51.428;6.682;2023-04-15T14:37:26;3.30;;;2.53;;
11797;SDS011;5956;51.428;6.682;2023-04-15T14:39:52;2.37;;;2.20;;
11797;SDS011;5956;51.428;6.682;2023-04-15T14:42:19;3.77;;;2.60;;
11797;SDS011;5956;51.428;6.682;2023-04-15T14:44:45;2.87;;;2.50;;
11797;SDS011;5956;51.428;6.682;2023-04-15T14:47:13;4.23;;;2.90;;
11797;SDS011;5956;51.428;6.682;2023-04-15T14:49:40;4.20;;;2.70;;
11797;SDS011;5956;51.428;6.682;2023-04-15T14:52:06;3.30;;;2.80;;
11797;SDS011;5956;51.428;6.682;2023-04-15T14:54:33;2.97;;;2.43;;
11797;SDS011;5956;51.428;6.682;2023-04-15T14:56:59;2.57;;;2.40;;
11797;SDS011;5956;51.428;6.682;2023-04-15T14:59:27;4.00;;;2.57;;
11797;SDS011;5956;51.428;6.682;2023-04-15T15:01:53;2.70;;;2.50;;